sensor_id;sensor_type;location;lat;lon;timestamp;P1;durP1;ratioP1;P2;durP2;ratioP2
66886;SDS011;67239;51.680;5.976;2023-07-31T00:00:30;19.50;;;7.68;;
66886;SDS011;67239;51.680;5.976;2023-07-31T00:02:57;21.52;;;8.30;;
66886;SDS011;67239;51.680;5.976;2023-07-31T00:05:25;19.33;;;8.52;;
66886;SDS011;67239;51.680;5.976;2023-07-31T00:07:52;20.55;;;9.23;;
66886;SDS011;67239;51.680;5.976;2023-07-31T00:10:20;23.35;;;9.55;;
66886;SDS011;67239;51.680;5.976;2023-07-31T00:12:48;17.17;;;9.07;;
66886;SDS011;67239;51.680;5.976;2023-07-31T00:15:16;21.65;;;9.32;;
66886;SDS011;67239;51.680;5.976;2023-07-31T00:17:43;20.67;;;9.23;;
66886;SDS011;67239;51.680;5.976;2023-07-31T00:20:10;23.05;;;9.90;;
66886;SDS011;67239;51.680;5.976;2023-07-31T00:22:38;24.60;;;9.15;;
66886;SDS011;67239;51.680;5.976;2023-07-31T00:25:05;26.25;;;8.82;;
66886;SDS011;67239;51.680;5.976;2023-07-31T00:27:35;24.10;;;9.05;;
66886;SDS011;67239;51.680;5.976;2023-07-31T00:30:02;23.10;;;8.10;;
66886;SDS011;67239;51.680;5.976;2023-07-31T00:32:32;18.60;;;8.52;;
66886;SDS011;67239;51.680;5.976;2023-07-31T00:34:59;23.92;;;8.43;;
66886;SDS011;67239;51.680;5.976;2023-07-31T00:37:26;19.60;;;8.18;;
66886;SDS011;67239;51.680;5.976;2023-07-31T00:39:55;18.38;;;8.50;;
66886;SDS011;67239;51.680;5.976;2023-07-31T00:42:22;19.80;;;8.63;;
66886;SDS011;67239;51.680;5.976;2023-07-31T00:44:51;23.60;;;8.40;;
66886;SDS011;67239;51.680;5.976;2023-07-31T00:47:18;20.58;;;7.80;;
66886;SDS011;67239;51.680;5.976;2023-07-31T00:49:45;23.98;;;7.85;;
66886;SDS011;67239;51.680;5.976;2023-07-31T00:52:13;19.27;;;7.25;;
66886;SDS011;67239;51.680;5.976;2023-07-31T00:54:40;17.23;;;7.47;;
66886;SDS011;67239;51.680;5.976;2023-07-31T00:57:07;17.13;;;7.07;;
66886;SDS011;67239;51.680;5.976;2023-07-31T00:59:35;16.52;;;6.68;;
66886;SDS011;67239;51.680;5.976;2023-07-31T01:02:02;16.40;;;6.47;;
66886;SDS011;67239;51.680;5.976;2023-07-31T01:04:30;19.00;;;7.47;;
66886;SDS011;67239;51.680;5.976;2023-07-31T01:07:02;18.90;;;6.82;;
66886;SDS011;67239;51.680;5.976;2023-07-31T01:10:04;19.27;;;6.60;;
66886;SDS011;67239;51.680;5.976;2023-07-31T01:12:42;18.42;;;6.47;;
66886;SDS011;67239;51.680;5.976;2023-07-31T01:15:13;22.20;;;6.72;;
66886;SDS011;67239;51.680;5.976;2023-07-31T01:17:42;19.35;;;6.38;;
66886;SDS011;67239;51.680;5.976;2023-07-31T01:20:11;15.13;;;5.57;;
66886;SDS011;67239;51.680;5.976;2023-07-31T01:26:14;17.02;;;5.97;;
66886;SDS011;67239;51.680;5.976;2023-07-31T01:31:57;18.60;;;6.22;;
66886;SDS011;67239;51.680;5.976;2023-07-31T01:34:30;19.80;;;6.28;;
66886;SDS011;67239;51.680;5.976;2023-07-31T01:36:59;17.10;;;5.53;;
66886;SDS011;67239;51.680;5.976;2023-07-31T01:39:26;15.00;;;5.57;;
66886;SDS011;67239;51.680;5.976;2023-07-31T01:41:53;16.42;;;5.63;;
66886;SDS011;67239;51.680;5.976;2023-07-31T01:44:20;17.63;;;5.13;;
66886;SDS011;67239;51.680;5.976;2023-07-31T01:46:47;16.20;;;5.57;;
66886;SDS011;67239;51.680;5.976;2023-07-31T01:49:14;14.45;;;5.07;;
66886;SDS011;67239;51.680;5.976;2023-07-31T01:51:41;17.77;;;5.18;;
66886;SDS011;67239;51.680;5.976;2023-07-31T01:54:08;13.75;;;4.88;;
66886;SDS011;67239;51.680;5.976;2023-07-31T01:56:37;15.82;;;5.30;;
66886;SDS011;67239;51.680;5.976;2023-07-31T01:59:05;17.05;;;5.00;;
66886;SDS011;67239;51.680;5.976;2023-07-31T02:01:32;16.45;;;5.38;;
66886;SDS011;67239;51.680;5.976;2023-07-31T02:04:01;13.65;;;5.22;;
66886;SDS011;67239;51.680;5.976;2023-07-31T02:06:29;11.63;;;4.75;;
66886;SDS011;67239;51.680;5.976;2023-07-31T02:08:56;12.48;;;4.85;;
66886;SDS011;67239;51.680;5.976;2023-07-31T02:11:23;14.45;;;5.18;;
66886;SDS011;67239;51.680;5.976;2023-07-31T02:13:50;17.17;;;5.03;;
66886;SDS011;67239;51.680;5.976;2023-07-31T02:16:17;15.10;;;5.32;;
66886;SDS011;67239;51.680;5.976;2023-07-31T02:18:45;15.90;;;5.45;;
66886;SDS011;67239;51.680;5.976;2023-07-31T02:21:12;13.60;;;4.80;;
66886;SDS011;67239;51.680;5.976;2023-07-31T02:23:39;15.30;;;5.65;;
66886;SDS011;67239;51.680;5.976;2023-07-31T02:26:06;13.50;;;4.88;;
66886;SDS011;67239;51.680;5.976;2023-07-31T02:28:34;16.15;;;4.60;;
66886;SDS011;67239;51.680;5.976;2023-07-31T02:31:01;16.92;;;5.10;;
66886;SDS011;67239;51.680;5.976;2023-07-31T02:33:28;14.10;;;4.97;;
66886;SDS011;67239;51.680;5.976;2023-07-31T02:35:55;14.50;;;5.25;;
66886;SDS011;67239;51.680;5.976;2023-07-31T02:38:22;13.88;;;5.20;;
66886;SDS011;67239;51.680;5.976;2023-07-31T02:40:50;16.98;;;5.20;;
66886;SDS011;67239;51.680;5.976;2023-07-31T02:43:17;15.73;;;5.05;;
66886;SDS011;67239;51.680;5.976;2023-07-31T02:45:44;13.73;;;5.40;;
66886;SDS011;67239;51.680;5.976;2023-07-31T02:48:11;17.50;;;5.28;;
66886;SDS011;67239;51.680;5.976;2023-07-31T02:50:38;15.73;;;4.95;;
66886;SDS011;67239;51.680;5.976;2023-07-31T02:53:05;17.73;;;5.72;;
66886;SDS011;67239;51.680;5.976;2023-07-31T02:55:32;17.33;;;5.68;;
66886;SDS011;67239;51.680;5.976;2023-07-31T02:57:59;17.17;;;5.20;;
66886;SDS011;67239;51.680;5.976;2023-07-31T03:00:29;17.25;;;5.22;;
66886;SDS011;67239;51.680;5.976;2023-07-31T03:02:57;15.48;;;4.68;;
66886;SDS011;67239;51.680;5.976;2023-07-31T03:05:24;13.25;;;4.82;;
66886;SDS011;67239;51.680;5.976;2023-07-31T03:07:51;14.30;;;5.00;;
66886;SDS011;67239;51.680;5.976;2023-07-31T03:10:18;16.15;;;5.15;;
66886;SDS011;67239;51.680;5.976;2023-07-31T03:12:48;14.35;;;5.05;;
66886;SDS011;67239;51.680;5.976;2023-07-31T03:15:15;15.07;;;4.95;;
66886;SDS011;67239;51.680;5.976;2023-07-31T03:17:42;13.93;;;4.75;;
66886;SDS011;67239;51.680;5.976;2023-07-31T03:20:10;14.27;;;5.53;;
66886;SDS011;67239;51.680;5.976;2023-07-31T03:22:37;16.38;;;5.20;;
66886;SDS011;67239;51.680;5.976;2023-07-31T03:25:05;18.58;;;5.30;;
66886;SDS011;67239;51.680;5.976;2023-07-31T03:27:33;15.13;;;5.32;;
66886;SDS011;67239;51.680;5.976;2023-07-31T03:30:00;13.63;;;5.00;;
66886;SDS011;67239;51.680;5.976;2023-07-31T03:32:29;14.77;;;5.03;;
66886;SDS011;67239;51.680;5.976;2023-07-31T03:34:57;11.98;;;5.25;;
66886;SDS011;67239;51.680;5.976;2023-07-31T03:37:24;13.40;;;4.80;;
66886;SDS011;67239;51.680;5.976;2023-07-31T03:39:52;15.57;;;5.30;;
66886;SDS011;67239;51.680;5.976;2023-07-31T03:42:20;16.50;;;5.35;;
66886;SDS011;67239;51.680;5.976;2023-07-31T03:44:50;17.77;;;5.20;;
66886;SDS011;67239;51.680;5.976;2023-07-31T03:47:17;13.18;;;5.22;;
66886;SDS011;67239;51.680;5.976;2023-07-31T03:49:44;18.05;;;5.45;;
66886;SDS011;67239;51.680;5.976;2023-07-31T03:52:11;14.40;;;5.40;;
66886;SDS011;67239;51.680;5.976;2023-07-31T03:54:38;19.65;;;4.95;;
66886;SDS011;67239;51.680;5.976;2023-07-31T03:57:05;17.02;;;5.50;;
66886;SDS011;67239;51.680;5.976;2023-07-31T03:59:32;15.98;;;5.13;;
66886;SDS011;67239;51.680;5.976;2023-07-31T04:02:00;13.43;;;4.90;;
66886;SDS011;67239;51.680;5.976;2023-07-31T04:04:27;17.63;;;5.43;;
66886;SDS011;67239;51.680;5.976;2023-07-31T04:06:54;16.98;;;5.20;;
66886;SDS011;67239;51.680;5.976;2023-07-31T04:09:22;13.10;;;4.78;;
66886;SDS011;67239;51.680;5.976;2023-07-31T04:11:49;14.70;;;4.80;;
66886;SDS011;67239;51.680;5.976;2023-07-31T04:14:16;11.25;;;4.50;;
66886;SDS011;67239;51.680;5.976;2023-07-31T04:16:43;11.30;;;4.60;;
66886;SDS011;67239;51.680;5.976;2023-07-31T04:19:10;16.55;;;4.93;;
66886;SDS011;67239;51.680;5.976;2023-07-31T04:21:37;13.90;;;5.18;;
66886;SDS011;67239;51.680;5.976;2023-07-31T04:24:04;12.20;;;4.63;;
66886;SDS011;67239;51.680;5.976;2023-07-31T04:26:31;13.88;;;4.70;;
66886;SDS011;67239;51.680;5.976;2023-07-31T04:28:58;15.75;;;4.60;;
66886;SDS011;67239;51.680;5.976;2023-07-31T04:31:25;13.27;;;4.90;;
66886;SDS011;67239;51.680;5.976;2023-07-31T04:33:53;12.30;;;4.40;;
66886;SDS011;67239;51.680;5.976;2023-07-31T04:36:20;15.00;;;4.93;;
66886;SDS011;67239;51.680;5.976;2023-07-31T04:38:47;12.60;;;4.57;;
66886;SDS011;67239;51.680;5.976;2023-07-31T04:41:14;15.18;;;4.80;;
66886;SDS011;67239;51.680;5.976;2023-07-31T04:43:41;11.90;;;4.35;;
66886;SDS011;67239;51.680;5.976;2023-07-31T04:46:08;12.13;;;4.70;;
66886;SDS011;67239;51.680;5.976;2023-07-31T04:48:35;16.02;;;4.80;;
66886;SDS011;67239;51.680;5.976;2023-07-31T04:51:02;10.73;;;4.85;;
66886;SDS011;67239;51.680;5.976;2023-07-31T04:53:29;15.85;;;5.28;;
66886;SDS011;67239;51.680;5.976;2023-07-31T04:55:59;15.20;;;4.93;;
66886;SDS011;67239;51.680;5.976;2023-07-31T04:58:27;12.73;;;4.50;;
66886;SDS011;67239;51.680;5.976;2023-07-31T05:00:56;12.02;;;4.57;;
66886;SDS011;67239;51.680;5.976;2023-07-31T05:03:23;15.15;;;4.75;;
66886;SDS011;67239;51.680;5.976;2023-07-31T05:05:51;15.35;;;4.90;;
66886;SDS011;67239;51.680;5.976;2023-07-31T05:08:18;15.35;;;4.72;;
66886;SDS011;67239;51.680;5.976;2023-07-31T05:10:45;14.18;;;4.45;;
66886;SDS011;67239;51.680;5.976;2023-07-31T05:13:12;14.27;;;4.55;;
66886;SDS011;67239;51.680;5.976;2023-07-31T05:15:40;11.02;;;4.38;;
66886;SDS011;67239;51.680;5.976;2023-07-31T05:18:09;14.75;;;4.45;;
66886;SDS011;67239;51.680;5.976;2023-07-31T05:20:36;13.93;;;4.45;;
66886;SDS011;67239;51.680;5.976;2023-07-31T05:23:03;9.40;;;4.18;;
66886;SDS011;67239;51.680;5.976;2023-07-31T05:25:30;12.73;;;4.53;;
66886;SDS011;67239;51.680;5.976;2023-07-31T05:27:57;15.00;;;4.78;;
66886;SDS011;67239;51.680;5.976;2023-07-31T05:30:25;14.10;;;4.22;;
66886;SDS011;67239;51.680;5.976;2023-07-31T05:32:52;15.68;;;4.40;;
66886;SDS011;67239;51.680;5.976;2023-07-31T05:35:19;14.98;;;4.43;;
66886;SDS011;67239;51.680;5.976;2023-07-31T05:37:47;10.70;;;4.00;;
66886;SDS011;67239;51.680;5.976;2023-07-31T05:40:14;14.75;;;4.93;;
66886;SDS011;67239;51.680;5.976;2023-07-31T05:42:42;9.95;;;4.22;;
66886;SDS011;67239;51.680;5.976;2023-07-31T05:45:10;14.18;;;4.82;;
66886;SDS011;67239;51.680;5.976;2023-07-31T05:47:37;11.30;;;4.82;;
66886;SDS011;67239;51.680;5.976;2023-07-31T05:50:04;13.05;;;4.95;;
66886;SDS011;67239;51.680;5.976;2023-07-31T05:52:32;12.52;;;5.13;;
66886;SDS011;67239;51.680;5.976;2023-07-31T05:55:02;13.45;;;4.78;;
66886;SDS011;67239;51.680;5.976;2023-07-31T05:57:31;12.27;;;5.00;;
66886;SDS011;67239;51.680;5.976;2023-07-31T05:59:58;11.05;;;5.15;;
66886;SDS011;67239;51.680;5.976;2023-07-31T06:02:25;11.52;;;4.68;;
66886;SDS011;67239;51.680;5.976;2023-07-31T06:04:55;11.65;;;4.43;;
66886;SDS011;67239;51.680;5.976;2023-07-31T06:07:23;9.70;;;4.47;;
66886;SDS011;67239;51.680;5.976;2023-07-31T06:09:51;10.90;;;4.68;;
66886;SDS011;67239;51.680;5.976;2023-07-31T06:12:21;11.40;;;4.80;;
66886;SDS011;67239;51.680;5.976;2023-07-31T06:14:48;12.52;;;4.72;;
66886;SDS011;67239;51.680;5.976;2023-07-31T06:17:15;9.32;;;3.97;;
66886;SDS011;67239;51.680;5.976;2023-07-31T06:19:42;10.60;;;4.53;;
66886;SDS011;67239;51.680;5.976;2023-07-31T06:22:09;13.68;;;4.22;;
66886;SDS011;67239;51.680;5.976;2023-07-31T06:24:36;8.95;;;4.03;;
66886;SDS011;67239;51.680;5.976;2023-07-31T06:27:03;9.02;;;4.03;;
66886;SDS011;67239;51.680;5.976;2023-07-31T06:29:32;9.48;;;4.20;;
66886;SDS011;67239;51.680;5.976;2023-07-31T06:31:59;7.10;;;3.90;;
66886;SDS011;67239;51.680;5.976;2023-07-31T06:34:29;8.15;;;3.53;;
66886;SDS011;67239;51.680;5.976;2023-07-31T06:36:57;7.00;;;3.80;;
66886;SDS011;67239;51.680;5.976;2023-07-31T06:39:24;7.53;;;3.95;;
66886;SDS011;67239;51.680;5.976;2023-07-31T06:41:51;7.43;;;3.35;;
66886;SDS011;67239;51.680;5.976;2023-07-31T06:44:18;6.18;;;3.35;;
66886;SDS011;67239;51.680;5.976;2023-07-31T06:46:45;6.65;;;3.53;;
66886;SDS011;67239;51.680;5.976;2023-07-31T06:49:15;7.57;;;4.00;;
66886;SDS011;67239;51.680;5.976;2023-07-31T06:51:43;6.88;;;3.33;;
66886;SDS011;67239;51.680;5.976;2023-07-31T06:54:11;7.40;;;3.60;;
66886;SDS011;67239;51.680;5.976;2023-07-31T06:56:38;6.65;;;3.63;;
66886;SDS011;67239;51.680;5.976;2023-07-31T06:59:07;7.72;;;3.67;;
66886;SDS011;67239;51.680;5.976;2023-07-31T07:01:35;7.85;;;3.70;;
66886;SDS011;67239;51.680;5.976;2023-07-31T07:04:02;5.18;;;3.25;;
66886;SDS011;67239;51.680;5.976;2023-07-31T07:06:29;5.63;;;3.28;;
66886;SDS011;67239;51.680;5.976;2023-07-31T07:08:56;5.15;;;3.30;;
66886;SDS011;67239;51.680;5.976;2023-07-31T07:11:23;5.22;;;3.38;;
66886;SDS011;67239;51.680;5.976;2023-07-31T07:13:51;5.43;;;3.40;;
66886;SDS011;67239;51.680;5.976;2023-07-31T07:16:18;5.80;;;3.30;;
66886;SDS011;67239;51.680;5.976;2023-07-31T07:18:46;5.78;;;3.85;;
66886;SDS011;67239;51.680;5.976;2023-07-31T07:21:29;5.03;;;2.77;;
66886;SDS011;67239;51.680;5.976;2023-07-31T07:23:57;7.07;;;3.47;;
66886;SDS011;67239;51.680;5.976;2023-07-31T07:26:24;6.00;;;3.63;;
66886;SDS011;67239;51.680;5.976;2023-07-31T07:28:51;7.15;;;3.50;;
66886;SDS011;67239;51.680;5.976;2023-07-31T07:31:18;4.50;;;2.90;;
66886;SDS011;67239;51.680;5.976;2023-07-31T07:33:45;6.72;;;3.53;;
66886;SDS011;67239;51.680;5.976;2023-07-31T07:36:13;4.97;;;3.20;;
66886;SDS011;67239;51.680;5.976;2023-07-31T07:38:40;4.55;;;3.30;;
66886;SDS011;67239;51.680;5.976;2023-07-31T07:41:08;7.38;;;3.03;;
66886;SDS011;67239;51.680;5.976;2023-07-31T07:43:35;6.18;;;2.80;;
66886;SDS011;67239;51.680;5.976;2023-07-31T07:46:02;5.60;;;3.00;;
66886;SDS011;67239;51.680;5.976;2023-07-31T07:48:29;4.78;;;2.88;;
66886;SDS011;67239;51.680;5.976;2023-07-31T07:50:56;5.38;;;2.95;;
66886;SDS011;67239;51.680;5.976;2023-07-31T07:53:24;4.35;;;2.70;;
66886;SDS011;67239;51.680;5.976;2023-07-31T07:55:52;5.15;;;2.78;;
66886;SDS011;67239;51.680;5.976;2023-07-31T07:58:19;4.28;;;2.42;;
66886;SDS011;67239;51.680;5.976;2023-07-31T08:00:52;3.22;;;2.40;;
66886;SDS011;67239;51.680;5.976;2023-07-31T08:03:25;3.83;;;2.67;;
66886;SDS011;67239;51.680;5.976;2023-07-31T08:06:09;4.78;;;2.63;;
66886;SDS011;67239;51.680;5.976;2023-07-31T08:08:37;3.17;;;2.08;;
66886;SDS011;67239;51.680;5.976;2023-07-31T08:11:06;4.35;;;2.40;;
66886;SDS011;67239;51.680;5.976;2023-07-31T08:13:34;2.90;;;2.10;;
66886;SDS011;67239;51.680;5.976;2023-07-31T08:16:03;4.32;;;2.50;;
66886;SDS011;67239;51.680;5.976;2023-07-31T08:18:39;4.00;;;2.33;;
66886;SDS011;67239;51.680;5.976;2023-07-31T08:21:07;3.55;;;2.38;;
66886;SDS011;67239;51.680;5.976;2023-07-31T08:23:35;2.80;;;2.20;;
66886;SDS011;67239;51.680;5.976;2023-07-31T08:26:04;4.70;;;2.65;;
66886;SDS011;67239;51.680;5.976;2023-07-31T08:28:31;4.63;;;2.50;;
66886;SDS011;67239;51.680;5.976;2023-07-31T08:31:07;5.15;;;2.60;;
66886;SDS011;67239;51.680;5.976;2023-07-31T08:33:38;3.85;;;2.50;;
66886;SDS011;67239;51.680;5.976;2023-07-31T08:36:11;3.03;;;2.23;;
66886;SDS011;67239;51.680;5.976;2023-07-31T08:38:38;4.70;;;2.65;;
66886;SDS011;67239;51.680;5.976;2023-07-31T08:41:11;4.63;;;2.70;;
66886;SDS011;67239;51.680;5.976;2023-07-31T08:43:49;5.22;;;2.88;;
66886;SDS011;67239;51.680;5.976;2023-07-31T08:46:19;4.75;;;2.78;;
66886;SDS011;67239;51.680;5.976;2023-07-31T08:48:51;3.80;;;2.95;;
66886;SDS011;67239;51.680;5.976;2023-07-31T08:51:22;5.18;;;2.60;;
66886;SDS011;67239;51.680;5.976;2023-07-31T08:53:49;4.15;;;2.47;;
66886;SDS011;67239;51.680;5.976;2023-07-31T08:56:16;4.95;;;2.88;;
66886;SDS011;67239;51.680;5.976;2023-07-31T08:58:45;4.22;;;2.83;;
66886;SDS011;67239;51.680;5.976;2023-07-31T09:01:14;3.60;;;2.60;;
66886;SDS011;67239;51.680;5.976;2023-07-31T09:03:45;4.75;;;2.97;;
66886;SDS011;67239;51.680;5.976;2023-07-31T09:06:19;3.97;;;2.53;;
66886;SDS011;67239;51.680;5.976;2023-07-31T09:08:54;6.30;;;2.90;;
66886;SDS011;67239;51.680;5.976;2023-07-31T09:11:25;4.65;;;2.65;;
66886;SDS011;67239;51.680;5.976;2023-07-31T09:13:57;4.63;;;2.70;;
66886;SDS011;67239;51.680;5.976;2023-07-31T09:16:27;6.28;;;3.10;;
66886;SDS011;67239;51.680;5.976;2023-07-31T09:19:00;6.35;;;2.88;;
66886;SDS011;67239;51.680;5.976;2023-07-31T09:21:31;5.80;;;2.80;;
66886;SDS011;67239;51.680;5.976;2023-07-31T09:23:58;5.05;;;3.05;;
66886;SDS011;67239;51.680;5.976;2023-07-31T09:29:05;5.90;;;3.20;;
66886;SDS011;67239;51.680;5.976;2023-07-31T09:31:46;5.82;;;2.78;;
66886;SDS011;67239;51.680;5.976;2023-07-31T09:34:17;4.13;;;2.90;;
66886;SDS011;67239;51.680;5.976;2023-07-31T09:36:51;6.47;;;3.22;;
66886;SDS011;67239;51.680;5.976;2023-07-31T09:39:24;6.32;;;3.75;;
66886;SDS011;67239;51.680;5.976;2023-07-31T09:41:54;5.47;;;3.47;;
66886;SDS011;67239;51.680;5.976;2023-07-31T09:44:38;8.45;;;3.75;;
66886;SDS011;67239;51.680;5.976;2023-07-31T09:47:21;8.23;;;3.95;;
66886;SDS011;67239;51.680;5.976;2023-07-31T09:49:55;6.30;;;3.70;;
66886;SDS011;67239;51.680;5.976;2023-07-31T09:52:22;8.00;;;4.22;;
66886;SDS011;67239;51.680;5.976;2023-07-31T09:54:49;7.88;;;4.50;;
66886;SDS011;67239;51.680;5.976;2023-07-31T09:57:20;8.15;;;4.40;;
66886;SDS011;67239;51.680;5.976;2023-07-31T09:59:49;9.80;;;4.72;;
66886;SDS011;67239;51.680;5.976;2023-07-31T10:02:20;10.45;;;4.60;;
66886;SDS011;67239;51.680;5.976;2023-07-31T10:04:50;10.60;;;4.43;;
66886;SDS011;67239;51.680;5.976;2023-07-31T10:07:18;8.65;;;4.55;;
66886;SDS011;67239;51.680;5.976;2023-07-31T10:09:52;6.10;;;4.32;;
66886;SDS011;67239;51.680;5.976;2023-07-31T10:12:22;7.90;;;3.92;;
66886;SDS011;67239;51.680;5.976;2023-07-31T10:14:57;7.80;;;4.18;;
66886;SDS011;67239;51.680;5.976;2023-07-31T10:17:27;8.20;;;4.60;;
66886;SDS011;67239;51.680;5.976;2023-07-31T10:19:58;7.57;;;4.50;;
66886;SDS011;67239;51.680;5.976;2023-07-31T10:22:31;9.25;;;4.40;;
66886;SDS011;67239;51.680;5.976;2023-07-31T10:24:59;7.60;;;4.45;;
66886;SDS011;67239;51.680;5.976;2023-07-31T10:27:27;8.48;;;4.32;;
66886;SDS011;67239;51.680;5.976;2023-07-31T10:29:56;7.57;;;4.15;;
66886;SDS011;67239;51.680;5.976;2023-07-31T10:32:28;6.70;;;3.97;;
66886;SDS011;67239;51.680;5.976;2023-07-31T10:34:56;8.50;;;4.10;;
66886;SDS011;67239;51.680;5.976;2023-07-31T10:37:31;8.30;;;3.67;;
66886;SDS011;67239;51.680;5.976;2023-07-31T10:42:48;7.65;;;3.85;;
66886;SDS011;67239;51.680;5.976;2023-07-31T10:45:27;5.90;;;3.30;;
66886;SDS011;67239;51.680;5.976;2023-07-31T10:48:15;6.93;;;3.53;;
66886;SDS011;67239;51.680;5.976;2023-07-31T10:50:49;7.65;;;3.40;;
66886;SDS011;67239;51.680;5.976;2023-07-31T10:53:26;6.53;;;3.40;;
66886;SDS011;67239;51.680;5.976;2023-07-31T10:56:07;6.55;;;3.08;;
66886;SDS011;67239;51.680;5.976;2023-07-31T10:58:41;6.25;;;3.10;;
66886;SDS011;67239;51.680;5.976;2023-07-31T11:01:12;5.13;;;2.95;;
66886;SDS011;67239;51.680;5.976;2023-07-31T11:03:47;6.35;;;3.17;;
66886;SDS011;67239;51.680;5.976;2023-07-31T11:06:19;8.40;;;3.17;;
66886;SDS011;67239;51.680;5.976;2023-07-31T11:08:50;4.47;;;2.83;;
66886;SDS011;67239;51.680;5.976;2023-07-31T11:11:18;5.35;;;2.88;;
66886;SDS011;67239;51.680;5.976;2023-07-31T11:13:51;5.88;;;3.05;;
66886;SDS011;67239;51.680;5.976;2023-07-31T11:16:21;5.47;;;2.92;;
66886;SDS011;67239;51.680;5.976;2023-07-31T11:18:52;5.07;;;2.88;;
66886;SDS011;67239;51.680;5.976;2023-07-31T11:21:23;5.38;;;3.10;;
66886;SDS011;67239;51.680;5.976;2023-07-31T11:23:53;4.95;;;3.03;;
66886;SDS011;67239;51.680;5.976;2023-07-31T11:26:26;4.93;;;3.10;;
66886;SDS011;67239;51.680;5.976;2023-07-31T11:28:56;4.80;;;2.90;;
66886;SDS011;67239;51.680;5.976;2023-07-31T11:31:25;8.52;;;3.15;;
66886;SDS011;67239;51.680;5.976;2023-07-31T11:34:04;6.10;;;3.00;;
66886;SDS011;67239;51.680;5.976;2023-07-31T11:36:34;5.88;;;2.60;;
66886;SDS011;67239;51.680;5.976;2023-07-31T11:39:04;5.00;;;2.90;;
66886;SDS011;67239;51.680;5.976;2023-07-31T11:41:42;7.15;;;3.13;;
66886;SDS011;67239;51.680;5.976;2023-07-31T11:44:10;11.65;;;3.85;;
66886;SDS011;67239;51.680;5.976;2023-07-31T11:46:53;4.68;;;3.05;;
66886;SDS011;67239;51.680;5.976;2023-07-31T11:49:23;5.47;;;2.90;;
66886;SDS011;67239;51.680;5.976;2023-07-31T11:51:53;6.57;;;2.70;;
66886;SDS011;67239;51.680;5.976;2023-07-31T11:54:21;6.03;;;2.38;;
66886;SDS011;67239;51.680;5.976;2023-07-31T11:56:48;3.95;;;2.42;;
66886;SDS011;67239;51.680;5.976;2023-07-31T11:59:18;5.97;;;2.75;;
66886;SDS011;67239;51.680;5.976;2023-07-31T12:01:45;3.88;;;2.63;;
66886;SDS011;67239;51.680;5.976;2023-07-31T12:04:13;6.53;;;3.10;;
66886;SDS011;67239;51.680;5.976;2023-07-31T12:06:40;5.80;;;2.67;;
66886;SDS011;67239;51.680;5.976;2023-07-31T12:09:08;3.50;;;2.70;;
66886;SDS011;67239;51.680;5.976;2023-07-31T12:11:45;4.80;;;2.35;;
66886;SDS011;67239;51.680;5.976;2023-07-31T12:14:29;6.05;;;2.45;;
66886;SDS011;67239;51.680;5.976;2023-07-31T12:16:58;6.78;;;2.53;;
66886;SDS011;67239;51.680;5.976;2023-07-31T12:19:30;7.80;;;2.88;;
66886;SDS011;67239;51.680;5.976;2023-07-31T12:22:01;4.35;;;2.30;;
66886;SDS011;67239;51.680;5.976;2023-07-31T12:24:29;6.35;;;2.50;;
66886;SDS011;67239;51.680;5.976;2023-07-31T12:26:57;6.40;;;2.35;;
66886;SDS011;67239;51.680;5.976;2023-07-31T12:29:33;4.38;;;2.00;;
66886;SDS011;67239;51.680;5.976;2023-07-31T12:32:20;6.93;;;2.17;;
66886;SDS011;67239;51.680;5.976;2023-07-31T12:34:52;4.10;;;1.90;;
66886;SDS011;67239;51.680;5.976;2023-07-31T12:37:20;3.40;;;2.10;;
66886;SDS011;67239;51.680;5.976;2023-07-31T12:39:48;3.17;;;2.05;;
66886;SDS011;67239;51.680;5.976;2023-07-31T12:42:17;3.67;;;1.95;;
66886;SDS011;67239;51.680;5.976;2023-07-31T12:44:45;4.47;;;2.10;;
66886;SDS011;67239;51.680;5.976;2023-07-31T12:47:12;6.38;;;2.13;;
66886;SDS011;67239;51.680;5.976;2023-07-31T12:49:41;5.25;;;2.30;;
66886;SDS011;67239;51.680;5.976;2023-07-31T12:52:09;10.10;;;2.50;;
66886;SDS011;67239;51.680;5.976;2023-07-31T12:54:36;8.05;;;2.20;;
66886;SDS011;67239;51.680;5.976;2023-07-31T12:57:05;4.97;;;2.22;;
66886;SDS011;67239;51.680;5.976;2023-07-31T12:59:32;4.25;;;2.55;;
66886;SDS011;67239;51.680;5.976;2023-07-31T13:01:59;12.07;;;3.55;;
66886;SDS011;67239;51.680;5.976;2023-07-31T13:04:27;5.78;;;2.50;;
66886;SDS011;67239;51.680;5.976;2023-07-31T13:06:54;5.13;;;2.55;;
66886;SDS011;67239;51.680;5.976;2023-07-31T13:09:22;4.95;;;2.70;;
66886;SDS011;67239;51.680;5.976;2023-07-31T13:11:50;4.97;;;2.45;;
66886;SDS011;67239;51.680;5.976;2023-07-31T13:14:17;4.53;;;2.45;;
66886;SDS011;67239;51.680;5.976;2023-07-31T13:16:44;7.10;;;2.70;;
66886;SDS011;67239;51.680;5.976;2023-07-31T13:19:12;5.22;;;2.60;;
66886;SDS011;67239;51.680;5.976;2023-07-31T13:21:39;7.07;;;3.60;;
66886;SDS011;67239;51.680;5.976;2023-07-31T13:24:06;8.10;;;3.00;;
66886;SDS011;67239;51.680;5.976;2023-07-31T13:26:34;6.40;;;3.33;;
66886;SDS011;67239;51.680;5.976;2023-07-31T13:29:02;5.68;;;3.22;;
66886;SDS011;67239;51.680;5.976;2023-07-31T13:31:30;5.28;;;3.42;;
66886;SDS011;67239;51.680;5.976;2023-07-31T13:33:59;7.40;;;3.83;;
66886;SDS011;67239;51.680;5.976;2023-07-31T13:36:26;6.93;;;3.60;;
66886;SDS011;67239;51.680;5.976;2023-07-31T13:38:54;8.05;;;3.83;;
66886;SDS011;67239;51.680;5.976;2023-07-31T13:41:21;8.15;;;4.18;;
66886;SDS011;67239;51.680;5.976;2023-07-31T13:43:48;6.47;;;3.75;;
66886;SDS011;67239;51.680;5.976;2023-07-31T13:46:16;9.30;;;3.60;;
66886;SDS011;67239;51.680;5.976;2023-07-31T13:48:43;7.18;;;3.58;;
66886;SDS011;67239;51.680;5.976;2023-07-31T13:51:10;6.35;;;3.58;;
66886;SDS011;67239;51.680;5.976;2023-07-31T13:53:37;5.18;;;3.67;;
66886;SDS011;67239;51.680;5.976;2023-07-31T13:56:04;10.30;;;4.15;;
66886;SDS011;67239;51.680;5.976;2023-07-31T13:58:32;7.63;;;3.60;;
66886;SDS011;67239;51.680;5.976;2023-07-31T14:01:01;8.05;;;3.85;;
66886;SDS011;67239;51.680;5.976;2023-07-31T14:03:28;10.38;;;4.20;;
66886;SDS011;67239;51.680;5.976;2023-07-31T14:05:55;6.82;;;3.85;;
66886;SDS011;67239;51.680;5.976;2023-07-31T14:08:22;6.53;;;3.47;;
66886;SDS011;67239;51.680;5.976;2023-07-31T14:10:50;8.25;;;3.83;;
66886;SDS011;67239;51.680;5.976;2023-07-31T14:13:17;8.52;;;4.00;;
66886;SDS011;67239;51.680;5.976;2023-07-31T14:15:44;8.15;;;4.30;;
66886;SDS011;67239;51.680;5.976;2023-07-31T14:18:11;9.68;;;4.20;;
66886;SDS011;67239;51.680;5.976;2023-07-31T14:20:39;10.30;;;4.00;;
66886;SDS011;67239;51.680;5.976;2023-07-31T14:23:07;6.07;;;3.80;;
66886;SDS011;67239;51.680;5.976;2023-07-31T14:25:40;10.18;;;4.38;;
66886;SDS011;67239;51.680;5.976;2023-07-31T14:28:08;7.95;;;4.20;;
66886;SDS011;67239;51.680;5.976;2023-07-31T14:30:35;9.57;;;4.43;;
66886;SDS011;67239;51.680;5.976;2023-07-31T14:33:02;7.15;;;4.45;;
66886;SDS011;67239;51.680;5.976;2023-07-31T14:35:29;14.25;;;4.40;;
66886;SDS011;67239;51.680;5.976;2023-07-31T14:37:56;11.18;;;5.00;;
66886;SDS011;67239;51.680;5.976;2023-07-31T14:40:24;9.35;;;5.22;;
66886;SDS011;67239;51.680;5.976;2023-07-31T14:42:51;7.55;;;4.90;;
66886;SDS011;67239;51.680;5.976;2023-07-31T14:45:18;9.57;;;5.40;;
66886;SDS011;67239;51.680;5.976;2023-07-31T14:47:45;10.43;;;4.80;;
66886;SDS011;67239;51.680;5.976;2023-07-31T14:50:13;11.15;;;4.95;;
66886;SDS011;67239;51.680;5.976;2023-07-31T14:52:40;8.65;;;4.95;;
66886;SDS011;67239;51.680;5.976;2023-07-31T14:55:08;10.32;;;5.10;;
66886;SDS011;67239;51.680;5.976;2023-07-31T14:57:36;10.55;;;5.18;;
66886;SDS011;67239;51.680;5.976;2023-07-31T15:00:03;8.65;;;5.13;;
66886;SDS011;67239;51.680;5.976;2023-07-31T15:02:34;9.68;;;5.03;;